createdAt,value
2023-01-21T00:01:44.205Z,9.20
2023-01-21T00:03:46.205Z,9.02
2023-01-21T00:05:47.956Z,8.45
2023-01-21T00:07:49.543Z,9.63
2023-01-21T00:09:50.993Z,8.02
2023-01-21T00:11:52.496Z,8.63
2023-01-21T00:13:54.095Z,8.73
2023-01-21T00:15:55.680Z,8.30
2023-01-21T00:17:57.207Z,9.73
2023-01-21T00:19:58.705Z,7.60
2023-01-21T00:22:00.251Z,6.70
2023-01-21T00:24:01.766Z,9.48
2023-01-21T00:26:05.556Z,9.27
2023-01-21T00:28:07.131Z,10.73
2023-01-21T00:30:10.685Z,13.43
2023-01-21T00:32:12.379Z,16.30
2023-01-21T00:34:14.228Z,9.82
2023-01-21T00:36:19.092Z,10.80
2023-01-21T00:38:20.601Z,15.88
2023-01-21T00:40:22.177Z,13.75
2023-01-21T00:42:23.751Z,10.90
2023-01-21T00:44:25.325Z,13.98
2023-01-21T00:46:28.546Z,9.30
2023-01-21T00:48:30.130Z,8.25
2023-01-21T00:50:31.670Z,12.07
2023-01-21T00:52:33.185Z,9.65
2023-01-21T00:54:34.685Z,10.23
2023-01-21T00:56:36.554Z,9.40
2023-01-21T00:58:38.368Z,11.30
2023-01-21T01:00:39.941Z,12.00
2023-01-21T01:02:41.490Z,11.57
2023-01-21T01:04:43.062Z,6.05
2023-01-21T01:06:44.575Z,10.75
2023-01-21T01:08:47.201Z,14.48
2023-01-21T01:10:48.765Z,7.78
2023-01-21T01:12:50.362Z,9.65
2023-01-21T01:14:51.854Z,11.15
2023-01-21T01:16:53.371Z,6.70
2023-01-21T01:18:55.559Z,11.57
2023-01-21T01:20:57.314Z,9.07
2023-01-21T01:22:58.852Z,9.38
2023-01-21T01:25:00.482Z,6.72
2023-01-21T01:27:02.049Z,5.35
2023-01-21T01:29:06.928Z,7.40
2023-01-21T01:31:11.447Z,8.63
2023-01-21T01:33:12.995Z,8.45
2023-01-21T01:35:14.605Z,7.47
2023-01-21T01:37:16.102Z,5.60
2023-01-21T01:39:17.601Z,10.45
2023-01-21T01:41:23.161Z,7.70
2023-01-21T01:43:46.446Z,6.95
2023-01-21T01:45:49.100Z,6.53
2023-01-21T01:48:14.031Z,6.93
2023-01-21T01:50:19.147Z,7.25
2023-01-21T01:52:22.004Z,12.57
2023-01-21T01:54:33.527Z,6.45
2023-01-21T01:56:37.559Z,4.63
2023-01-21T01:58:39.892Z,5.72
2023-01-21T02:00:41.669Z,7.15
2023-01-21T02:03:04.542Z,8.65
2023-01-21T02:05:09.191Z,10.20
2023-01-21T02:07:11.181Z,6.65
2023-01-21T02:09:12.731Z,6.18
2023-01-21T02:11:16.592Z,6.32
2023-01-21T02:13:18.231Z,6.22
2023-01-21T02:15:19.974Z,10.82
2023-01-21T02:17:42.754Z,5.32
2023-01-21T02:19:53.590Z,9.25
2023-01-21T02:22:37.095Z,4.90
2023-01-21T02:24:53.538Z,4.10
2023-01-21T02:27:30.146Z,4.55
2023-01-21T02:29:47.436Z,3.78
2023-01-21T02:32:06.867Z,5.32
2023-01-21T02:34:23.057Z,3.53
2023-01-21T02:36:43.462Z,3.60
2023-01-21T02:39:09.523Z,4.88
2023-01-21T02:41:25.391Z,4.80
2023-01-21T02:43:36.435Z,4.70
2023-01-21T02:45:54.950Z,3.95
2023-01-21T02:48:29.739Z,4.18
2023-01-21T02:50:35.936Z,6.43
2023-01-21T02:52:37.488Z,5.25
2023-01-21T02:54:38.918Z,4.93
2023-01-21T02:56:42.928Z,5.78
2023-01-21T02:58:52.507Z,5.82
2023-01-21T03:05:48.198Z,4.68
2023-01-21T03:08:19.923Z,4.70
2023-01-21T03:10:37.101Z,5.03
2023-01-21T03:12:57.098Z,4.18
2023-01-21T03:15:29.425Z,8.43
2023-01-21T03:17:41.865Z,3.53
2023-01-21T03:19:49.854Z,4.90
2023-01-21T03:21:53.772Z,6.65
2023-01-21T03:23:57.730Z,6.85
2023-01-21T03:26:00.726Z,6.75
2023-01-21T03:28:08.141Z,4.80
2023-01-21T03:30:18.705Z,5.32
2023-01-21T03:32:21.902Z,4.57
2023-01-21T03:34:26.818Z,2.58
2023-01-21T03:36:55.993Z,5.57
2023-01-21T03:38:59.442Z,6.45
2023-01-21T03:41:07.703Z,5.43
2023-01-21T03:43:10.112Z,8.88
2023-01-21T03:45:12.316Z,6.32
2023-01-21T03:47:25.335Z,4.82
2023-01-21T03:49:42.282Z,6.07
2023-01-21T03:51:51.554Z,6.85
2023-01-21T03:53:57.262Z,5.85
2023-01-21T03:56:00.039Z,8.77
2023-01-21T03:58:01.756Z,4.78
2023-01-21T04:00:05.173Z,6.90
2023-01-21T04:02:06.771Z,6.07
2023-01-21T04:04:09.576Z,7.10
2023-01-21T04:06:15.697Z,8.25
2023-01-21T04:08:17.314Z,5.57
2023-01-21T04:10:19.040Z,6.93
2023-01-21T04:12:20.725Z,9.10
2023-01-21T04:14:22.250Z,6.28
2023-01-21T04:16:23.822Z,6.35
2023-01-21T04:18:25.417Z,10.13
2023-01-21T04:20:26.924Z,6.95
2023-01-21T04:22:28.420Z,6.93
2023-01-21T04:24:29.961Z,8.10
2023-01-21T04:26:31.586Z,8.02
2023-01-21T04:28:33.397Z,7.38
2023-01-21T04:30:35.019Z,8.23
2023-01-21T04:32:37.483Z,7.30
2023-01-21T04:34:38.973Z,8.27
2023-01-21T04:36:40.485Z,8.85
2023-01-21T04:38:42.022Z,9.40
2023-01-21T04:40:43.964Z,9.05
2023-01-21T04:42:45.518Z,9.30
2023-01-21T04:44:47.636Z,6.78
2023-01-21T04:46:49.219Z,8.23
2023-01-21T04:48:50.818Z,5.47
2023-01-21T04:50:52.352Z,7.80
2023-01-21T04:52:53.944Z,6.63
2023-01-21T04:54:55.413Z,5.20
2023-01-21T04:56:56.923Z,3.97
2023-01-21T04:58:58.430Z,8.75
2023-01-21T05:01:00.012Z,6.30
2023-01-21T05:03:01.564Z,6.65
2023-01-21T05:05:03.130Z,8.13
2023-01-21T05:07:05.484Z,6.88
2023-01-21T05:09:07.007Z,5.85
2023-01-21T05:11:09.645Z,8.40
2023-01-21T05:13:11.151Z,4.60
2023-01-21T05:15:12.749Z,8.38
2023-01-21T05:17:14.262Z,7.43
2023-01-21T05:19:15.853Z,8.40
2023-01-21T05:21:17.409Z,9.70
2023-01-21T05:23:18.992Z,5.88
2023-01-21T05:25:20.526Z,7.80
2023-01-21T05:27:22.126Z,6.28
2023-01-21T05:29:23.735Z,8.38
2023-01-21T05:31:28.469Z,10.68
2023-01-21T05:33:34.391Z,9.27
2023-01-21T05:35:36.006Z,13.80
2023-01-21T05:37:37.866Z,11.68
2023-01-21T05:39:39.380Z,9.10
2023-01-21T05:41:41.023Z,11.02
2023-01-21T05:43:42.525Z,9.30
2023-01-21T05:45:44.041Z,8.30
2023-01-21T05:47:45.531Z,14.00
2023-01-21T05:49:47.043Z,7.85
2023-01-21T05:51:48.569Z,6.25
2023-01-21T05:53:50.291Z,6.32
2023-01-21T05:55:56.363Z,7.97
2023-01-21T05:57:57.889Z,9.85
2023-01-21T05:59:59.527Z,7.88
2023-01-21T06:02:01.139Z,3.80
2023-01-21T06:04:02.679Z,8.07
2023-01-21T06:06:04.693Z,8.35
2023-01-21T06:08:06.222Z,4.85
2023-01-21T06:10:08.460Z,4.80
2023-01-21T06:12:10.126Z,8.70
2023-01-21T06:14:12.534Z,6.20
2023-01-21T06:16:14.067Z,6.63
2023-01-21T06:18:15.750Z,5.68
2023-01-21T06:20:17.559Z,7.80
2023-01-21T06:22:20.654Z,8.18
2023-01-21T06:24:22.161Z,20.80
2023-01-21T06:26:25.006Z,4.65
2023-01-21T06:28:29.249Z,7.88
2023-01-21T06:30:30.813Z,6.22
2023-01-21T06:32:32.961Z,7.13
2023-01-21T06:34:34.486Z,7.93
2023-01-21T06:36:36.430Z,6.20
2023-01-21T06:38:38.023Z,6.43
2023-01-21T06:40:39.649Z,6.15
2023-01-21T06:42:41.318Z,8.35
2023-01-21T06:44:42.845Z,4.18
2023-01-21T06:46:52.173Z,12.30
2023-01-21T06:49:01.247Z,3.63
2023-01-21T06:51:03.239Z,9.68
2023-01-21T06:53:04.801Z,5.45
2023-01-21T06:55:06.707Z,4.78
2023-01-21T06:57:08.225Z,10.10
2023-01-21T06:59:10.079Z,4.53
2023-01-21T07:01:11.731Z,8.50
2023-01-21T07:03:13.302Z,12.23
2023-01-21T07:05:15.485Z,4.80
2023-01-21T07:07:17.649Z,4.32
2023-01-21T07:09:19.715Z,8.63
2023-01-21T07:11:21.196Z,5.38
2023-01-21T07:13:23.438Z,3.83
2023-01-21T07:15:25.000Z,6.57
2023-01-21T07:17:26.559Z,4.05
2023-01-21T07:19:28.164Z,4.90
2023-01-21T07:21:29.712Z,7.68
2023-01-21T07:23:31.303Z,5.20
2023-01-21T07:25:32.930Z,2.78
2023-01-21T07:27:34.443Z,5.68
2023-01-21T07:29:35.988Z,5.97
2023-01-21T07:31:37.641Z,11.57
2023-01-21T07:33:39.999Z,9.93
2023-01-21T07:35:41.552Z,6.72
2023-01-21T07:37:43.150Z,10.18
2023-01-21T07:39:44.680Z,6.93
2023-01-21T07:41:46.736Z,4.63
2023-01-21T07:43:49.058Z,5.93
2023-01-21T07:45:50.749Z,11.65
2023-01-21T07:47:52.302Z,17.17
2023-01-21T07:49:53.826Z,8.15
2023-01-21T07:51:58.534Z,9.55
2023-01-21T07:54:00.131Z,8.18
2023-01-21T07:56:08.357Z,11.30
2023-01-21T07:58:10.825Z,3.47
2023-01-21T08:00:12.953Z,6.90
2023-01-21T08:02:14.540Z,5.28
2023-01-21T08:04:16.531Z,6.57
2023-01-21T08:06:18.089Z,9.85
2023-01-21T08:08:19.572Z,9.30
2023-01-21T08:10:22.266Z,10.48
2023-01-21T08:12:26.374Z,6.10
2023-01-21T08:14:28.594Z,7.93
2023-01-21T08:16:30.161Z,39.08
2023-01-21T08:18:31.890Z,19.77
2023-01-21T08:20:33.471Z,11.25
2023-01-21T08:22:35.092Z,24.33
2023-01-21T08:24:36.633Z,28.20
2023-01-21T08:26:38.157Z,10.70
2023-01-21T08:28:40.026Z,18.52
2023-01-21T08:30:41.712Z,8.27
2023-01-21T08:32:43.332Z,23.23
2023-01-21T08:34:44.870Z,9.75
2023-01-21T08:36:46.495Z,10.23
2023-01-21T08:38:48.842Z,8.07
2023-01-21T08:40:50.422Z,7.05
2023-01-21T08:42:52.908Z,9.48
2023-01-21T08:44:54.420Z,8.35
2023-01-21T08:46:56.437Z,7.82
2023-01-21T08:48:58.099Z,7.93
2023-01-21T08:51:00.639Z,13.35
2023-01-21T08:53:02.201Z,12.05
2023-01-21T08:55:03.881Z,13.23
2023-01-21T08:57:05.432Z,21.80
2023-01-21T08:59:07.230Z,13.20
2023-01-21T09:01:11.453Z,10.52
2023-01-21T09:03:17.014Z,13.93
2023-01-21T09:05:19.096Z,15.07
2023-01-21T09:07:20.774Z,19.30
2023-01-21T09:09:22.302Z,16.35
2023-01-21T09:11:26.396Z,27.27
2023-01-21T09:13:29.355Z,16.42
2023-01-21T09:15:31.002Z,21.60
2023-01-21T09:17:32.599Z,10.75
2023-01-21T09:19:34.151Z,13.98
2023-01-21T09:21:35.867Z,11.50
2023-01-21T09:23:38.373Z,16.50
2023-01-21T09:25:39.880Z,17.35
2023-01-21T09:27:41.393Z,10.65
2023-01-21T09:29:42.921Z,15.60
2023-01-21T09:31:44.485Z,19.60
2023-01-21T09:33:49.065Z,28.20
2023-01-21T09:35:59.152Z,44.47
2023-01-21T09:38:00.692Z,42.60
2023-01-21T09:40:02.194Z,17.45
2023-01-21T09:42:03.857Z,12.10
2023-01-21T09:44:12.544Z,13.90
2023-01-21T09:46:43.808Z,12.10
2023-01-21T09:48:48.390Z,10.57
2023-01-21T09:50:51.153Z,21.33
2023-01-21T09:52:59.447Z,17.88
2023-01-21T09:55:02.446Z,16.83
2023-01-21T09:57:31.312Z,28.23
2023-01-21T09:59:33.790Z,24.33
2023-01-21T10:01:38.746Z,25.35
2023-01-21T10:03:52.591Z,27.95
2023-01-21T10:06:09.698Z,26.10
2023-01-21T10:08:39.088Z,26.95
2023-01-21T10:10:57.787Z,18.63
2023-01-21T10:13:02.203Z,24.52
2023-01-21T10:15:18.817Z,46.70
2023-01-21T10:17:47.639Z,28.88
2023-01-21T10:19:55.071Z,47.65
2023-01-21T10:22:04.171Z,25.10
2023-01-21T10:24:38.798Z,20.90
2023-01-21T10:26:43.502Z,21.20
2023-01-21T10:28:50.736Z,35.05
2023-01-21T10:30:55.185Z,53.63
2023-01-21T10:32:56.855Z,49.90
2023-01-21T10:34:58.586Z,70.70
2023-01-21T10:37:02.978Z,76.50
2023-01-21T10:39:18.510Z,58.88
2023-01-21T10:41:41.711Z,63.53
2023-01-21T10:43:50.562Z,66.05
2023-01-21T10:46:12.219Z,64.07
2023-01-21T10:48:28.793Z,66.10
2023-01-21T10:50:47.082Z,72.93
2023-01-21T10:53:12.108Z,58.30
2023-01-21T10:55:38.318Z,61.65
2023-01-21T10:58:03.796Z,49.63
2023-01-21T11:00:18.623Z,93.25
2023-01-21T11:02:27.484Z,79.13
2023-01-21T11:04:29.507Z,53.42
2023-01-21T11:06:33.403Z,61.67
2023-01-21T11:08:35.228Z,78.03
2023-01-21T11:10:36.778Z,156.10
2023-01-21T11:12:38.354Z,73.65
2023-01-21T11:14:39.849Z,53.22
2023-01-21T11:16:45.381Z,144.77
2023-01-21T11:18:47.058Z,49.85
2023-01-21T11:20:48.626Z,37.78
2023-01-21T11:22:50.576Z,35.08
2023-01-21T11:24:52.791Z,31.27
2023-01-21T11:26:57.856Z,88.93
2023-01-21T11:29:11.288Z,40.92
2023-01-21T11:31:15.846Z,33.28
2023-01-21T11:33:25.147Z,20.67
2023-01-21T11:35:26.984Z,58.42
2023-01-21T11:37:30.602Z,38.40
2023-01-21T11:39:36.762Z,21.45
2023-01-21T11:41:38.509Z,36.30
2023-01-21T11:43:41.270Z,24.38
2023-01-21T11:45:43.610Z,43.90
2023-01-21T11:47:50.818Z,23.52
2023-01-21T11:49:52.815Z,19.48
2023-01-21T11:52:26.624Z,20.80
2023-01-21T11:54:28.134Z,21.88
2023-01-21T11:56:29.727Z,22.13
2023-01-21T11:58:36.516Z,21.05
2023-01-21T12:00:38.533Z,17.50
2023-01-21T12:02:46.280Z,22.13
2023-01-21T12:04:53.719Z,31.58
2023-01-21T12:06:58.733Z,39.33
2023-01-21T12:09:03.579Z,67.57
2023-01-21T12:11:07.369Z,36.63
2023-01-21T12:13:17.712Z,22.23
2023-01-21T12:15:39.152Z,25.17
2023-01-21T12:18:03.008Z,91.30
2023-01-21T12:20:27.288Z,27.83
2023-01-21T12:23:19.515Z,22.73
2023-01-21T12:26:08.381Z,42.47
2023-01-21T12:28:25.097Z,18.75
2023-01-21T12:30:51.075Z,29.35
2023-01-21T12:33:01.757Z,22.98
2023-01-21T12:35:08.320Z,30.58
2023-01-21T12:37:13.133Z,46.50
2023-01-21T12:39:33.679Z,177.80
2023-01-21T12:41:38.222Z,41.28
2023-01-21T12:43:49.985Z,52.17
2023-01-21T12:46:01.266Z,49.65
2023-01-21T12:48:23.050Z,27.77
2023-01-21T12:50:33.201Z,29.67
2023-01-21T12:52:43.972Z,38.60
2023-01-21T12:55:21.984Z,23.17
2023-01-21T12:57:36.447Z,18.33
2023-01-21T12:59:49.187Z,26.60
2023-01-21T13:01:53.416Z,33.40
2023-01-21T13:04:17.454Z,32.17
2023-01-21T13:06:33.571Z,26.52
2023-01-21T13:09:24.998Z,29.65
2023-01-21T13:11:34.989Z,36.28
2023-01-21T13:13:45.240Z,52.55
2023-01-21T13:15:51.233Z,49.13
2023-01-21T13:17:58.793Z,52.58
2023-01-21T13:20:00.503Z,42.88
2023-01-21T13:22:14.209Z,50.17
2023-01-21T13:24:24.795Z,150.60
2023-01-21T13:26:38.305Z,122.53
2023-01-21T13:28:48.816Z,48.10
2023-01-21T13:31:12.053Z,46.17
2023-01-21T13:33:16.395Z,32.05
2023-01-21T13:35:42.596Z,60.88
2023-01-21T13:38:09.893Z,90.07
2023-01-21T13:40:39.568Z,85.32
2023-01-21T13:42:53.076Z,56.85
2023-01-21T13:45:14.818Z,71.38
2023-01-21T13:47:44.526Z,76.55
2023-01-21T13:52:22.644Z,65.68
2023-01-21T13:54:29.556Z,62.80
2023-01-21T13:56:48.713Z,101.53
2023-01-21T13:59:01.578Z,77.20
2023-01-21T14:01:12.080Z,52.90
2023-01-21T14:03:45.160Z,96.25
2023-01-21T14:05:55.769Z,99.43
2023-01-21T14:08:03.949Z,77.85
2023-01-21T14:10:31.490Z,46.47
2023-01-21T14:12:53.524Z,61.90
2023-01-21T14:15:28.473Z,47.40
2023-01-21T14:18:18.527Z,48.53
2023-01-21T14:20:44.429Z,47.97
2023-01-21T14:23:06.496Z,50.05
2023-01-21T14:25:16.911Z,43.97
2023-01-21T14:27:18.420Z,97.68
2023-01-21T14:29:38.132Z,69.45
2023-01-21T14:31:44.704Z,73.40
2023-01-21T14:34:12.461Z,100.10
2023-01-21T14:36:23.103Z,54.42
2023-01-21T14:39:01.074Z,88.95
2023-01-21T14:41:08.179Z,82.38
2023-01-21T14:43:19.404Z,81.45
2023-01-21T14:45:25.723Z,286.48
2023-01-21T14:47:30.240Z,135.77
2023-01-21T14:49:44.650Z,122.97
2023-01-21T14:51:50.056Z,65.03
2023-01-21T14:53:57.076Z,53.90
2023-01-21T14:56:17.471Z,54.22
2023-01-21T14:58:27.730Z,65.70
2023-01-21T15:00:32.956Z,80.20
2023-01-21T15:03:06.965Z,91.57
2023-01-21T15:05:11.209Z,89.03
2023-01-21T15:07:19.246Z,93.20
2023-01-21T15:09:47.108Z,107.53
2023-01-21T15:11:55.406Z,75.82
2023-01-21T15:14:21.801Z,64.13
2023-01-21T15:16:35.647Z,61.15
2023-01-21T15:18:40.336Z,59.35
2023-01-21T15:20:49.968Z,51.83
2023-01-21T15:25:14.462Z,77.65
2023-01-21T15:27:16.051Z,73.43
2023-01-21T15:29:35.495Z,75.55
2023-01-21T15:31:43.471Z,66.45
2023-01-21T15:33:57.238Z,72.47
2023-01-21T15:36:00.282Z,69.57
2023-01-21T15:38:07.822Z,61.80
2023-01-21T15:40:18.610Z,63.85
2023-01-21T15:42:51.443Z,62.70
2023-01-21T15:45:41.151Z,63.25
2023-01-21T15:48:05.620Z,102.93
2023-01-21T15:50:27.902Z,95.28
2023-01-21T15:53:14.557Z,53.83
2023-01-21T15:55:37.468Z,37.00
2023-01-21T15:58:12.362Z,49.58
2023-01-21T16:00:31.636Z,34.22
2023-01-21T16:02:51.265Z,38.22
2023-01-21T16:05:24.613Z,75.80
2023-01-21T16:07:49.368Z,61.55
2023-01-21T16:10:15.070Z,58.50
2023-01-21T16:12:35.074Z,48.25
2023-01-21T16:14:45.675Z,40.58
2023-01-21T16:17:03.129Z,42.78
2023-01-21T16:19:12.011Z,42.80
2023-01-21T16:21:14.155Z,37.88
2023-01-21T16:23:18.734Z,47.03
2023-01-21T16:25:23.372Z,40.75
2023-01-21T16:27:28.142Z,36.40
2023-01-21T16:29:37.774Z,32.33
2023-01-21T16:33:54.559Z,31.88
2023-01-21T16:36:00.834Z,37.38
2023-01-21T16:38:02.403Z,36.40
2023-01-21T16:40:09.878Z,37.38
2023-01-21T16:42:24.626Z,39.22
2023-01-21T16:44:26.220Z,37.95
2023-01-21T16:46:37.635Z,39.10
2023-01-21T16:48:39.799Z,45.22
2023-01-21T16:50:47.772Z,58.55
2023-01-21T16:52:50.840Z,55.70
2023-01-21T16:54:55.202Z,109.63
2023-01-21T16:57:02.391Z,103.60
2023-01-21T16:59:03.890Z,77.57
2023-01-21T17:01:10.976Z,103.63
2023-01-21T17:03:12.714Z,94.70
2023-01-21T17:05:14.584Z,86.88
2023-01-21T17:07:20.573Z,90.68
2023-01-21T17:09:32.607Z,50.53
2023-01-21T17:11:36.592Z,59.47
2023-01-21T17:13:43.221Z,62.90
2023-01-21T17:15:57.332Z,76.93
2023-01-21T17:18:00.448Z,71.53
2023-01-21T17:20:02.629Z,70.18
2023-01-21T17:22:14.338Z,62.90
2023-01-21T17:24:28.641Z,79.00
2023-01-21T17:26:41.942Z,71.30
2023-01-21T17:28:59.650Z,102.00
2023-01-21T17:31:16.475Z,113.18
2023-01-21T17:33:30.525Z,80.20
2023-01-21T17:35:33.556Z,72.32
2023-01-21T17:37:59.705Z,55.65
2023-01-21T17:40:01.533Z,83.28
2023-01-21T17:42:04.596Z,107.30
2023-01-21T17:44:17.017Z,112.72
2023-01-21T17:46:25.442Z,107.55
2023-01-21T17:48:32.435Z,96.45
2023-01-21T17:50:34.211Z,117.40
2023-01-21T17:52:35.738Z,148.00
2023-01-21T17:54:37.423Z,93.30
2023-01-21T17:56:51.345Z,140.68
2023-01-21T17:58:52.954Z,71.82
2023-01-21T18:00:54.619Z,79.97
2023-01-21T18:02:57.336Z,89.68
2023-01-21T18:04:59.032Z,83.32
2023-01-21T18:07:00.700Z,79.72
2023-01-21T18:09:02.908Z,71.18
2023-01-21T18:11:04.589Z,82.93
2023-01-21T18:13:06.337Z,85.15
2023-01-21T18:15:13.035Z,79.35
2023-01-21T18:17:20.279Z,97.20
2023-01-21T18:19:37.359Z,79.95
2023-01-21T18:21:38.900Z,59.15
2023-01-21T18:23:40.442Z,50.50
2023-01-21T18:25:42.669Z,74.05
2023-01-21T18:27:46.908Z,85.95
2023-01-21T18:29:48.555Z,77.13
2023-01-21T18:31:52.269Z,73.75
2023-01-21T18:33:55.103Z,80.93
2023-01-21T18:35:56.868Z,81.85
2023-01-21T18:37:58.419Z,90.63
2023-01-21T18:39:59.914Z,88.78
2023-01-21T18:42:01.578Z,84.88
2023-01-21T18:44:03.249Z,105.45
2023-01-21T18:46:11.282Z,131.75
2023-01-21T18:48:17.402Z,121.25
2023-01-21T18:50:21.733Z,116.50
2023-01-21T18:52:23.483Z,134.30
2023-01-21T18:54:25.017Z,139.68
2023-01-21T18:56:26.681Z,126.05
2023-01-21T18:58:28.214Z,137.02
2023-01-21T19:00:33.344Z,107.13
2023-01-21T19:02:34.901Z,104.75
2023-01-21T19:04:36.572Z,106.07
2023-01-21T19:06:38.315Z,95.20
2023-01-21T19:08:40.190Z,93.07
2023-01-21T19:10:41.799Z,67.90
2023-01-21T19:12:47.128Z,83.43
2023-01-21T19:14:49.419Z,91.43
2023-01-21T19:16:51.061Z,89.90
2023-01-21T19:18:52.630Z,99.10
2023-01-21T19:20:54.992Z,101.85
2023-01-21T19:22:56.706Z,94.45
2023-01-21T19:24:58.262Z,293.05
2023-01-21T19:27:00.576Z,191.68
2023-01-21T19:29:04.708Z,121.97
2023-01-21T19:31:06.617Z,130.93
2023-01-21T19:33:09.224Z,141.35
2023-01-21T19:35:14.471Z,160.65
2023-01-21T19:37:19.611Z,133.23
2023-01-21T19:39:25.694Z,135.05
2023-01-21T19:41:27.297Z,108.13
2023-01-21T19:43:29.463Z,106.57
2023-01-21T19:45:31.173Z,102.60
2023-01-21T19:47:32.774Z,120.95
2023-01-21T19:49:34.488Z,127.30
2023-01-21T19:51:36.097Z,117.18
2023-01-21T19:53:37.704Z,125.50
2023-01-21T19:55:39.753Z,108.32
2023-01-21T19:57:41.596Z,108.60
2023-01-21T19:59:49.652Z,102.03
2023-01-21T20:01:51.205Z,106.15
2023-01-21T20:04:00.117Z,102.28
2023-01-21T20:06:05.250Z,103.30
2023-01-21T20:08:11.462Z,120.28
2023-01-21T20:10:18.288Z,91.95
2023-01-21T20:12:19.968Z,80.20
2023-01-21T20:14:21.651Z,80.15
2023-01-21T20:16:24.248Z,72.38
2023-01-21T20:18:28.826Z,63.63
2023-01-21T20:20:32.705Z,64.53
2023-01-21T20:22:34.219Z,63.83
2023-01-21T20:24:35.797Z,97.45
2023-01-21T20:26:38.559Z,74.25
2023-01-21T20:28:44.481Z,89.28
2023-01-21T20:30:47.323Z,80.60
2023-01-21T20:32:49.242Z,86.95
2023-01-21T20:34:50.870Z,91.55
2023-01-21T20:36:52.791Z,93.88
2023-01-21T20:38:55.196Z,87.85
2023-01-21T20:40:57.418Z,95.47
2023-01-21T20:42:59.056Z,85.80
2023-01-21T20:45:00.586Z,90.57
2023-01-21T20:47:02.220Z,121.22
2023-01-21T20:49:03.971Z,101.38
2023-01-21T20:51:05.993Z,140.85
2023-01-21T20:53:11.177Z,117.65
2023-01-21T20:55:13.966Z,114.90
2023-01-21T20:57:15.500Z,111.28
2023-01-21T20:59:17.045Z,118.95
2023-01-21T21:01:21.773Z,131.90
2023-01-21T21:03:23.309Z,122.97
2023-01-21T21:05:27.608Z,121.90
2023-01-21T21:07:29.380Z,124.22
2023-01-21T21:09:36.176Z,104.68
2023-01-21T21:11:37.718Z,98.63
2023-01-21T21:13:39.297Z,184.07
2023-01-21T21:15:41.937Z,101.22
2023-01-21T21:17:49.544Z,84.57
2023-01-21T21:19:51.101Z,75.68
2023-01-21T21:21:52.661Z,74.47
2023-01-21T21:23:54.206Z,99.95
2023-01-21T21:25:55.767Z,154.38
2023-01-21T21:27:58.166Z,141.55
2023-01-21T21:29:59.678Z,117.68
2023-01-21T21:32:02.705Z,107.97
2023-01-21T21:34:04.377Z,90.72
2023-01-21T21:36:10.368Z,95.93
2023-01-21T21:38:15.589Z,92.68
2023-01-21T21:40:18.818Z,83.05
2023-01-21T21:42:38.936Z,63.72
2023-01-21T21:44:43.926Z,99.63
2023-01-21T21:47:04.141Z,87.38
2023-01-21T21:49:05.654Z,75.00
2023-01-21T21:51:09.690Z,96.28
2023-01-21T21:53:11.736Z,78.70
2023-01-21T21:55:15.544Z,71.28
2023-01-21T21:57:17.222Z,78.65
2023-01-21T22:00:15.143Z,83.47
2023-01-21T22:02:16.719Z,65.70
2023-01-21T22:04:18.308Z,74.97
2023-01-21T22:06:22.241Z,76.55
2023-01-21T22:08:24.999Z,51.83
2023-01-21T22:10:26.629Z,61.22
2023-01-21T22:12:28.141Z,70.82
2023-01-21T22:14:29.632Z,84.45
2023-01-21T22:16:31.637Z,55.92
2023-01-21T22:18:33.982Z,50.63
2023-01-21T22:20:35.509Z,53.90
2023-01-21T22:22:37.177Z,52.13
2023-01-21T22:24:38.756Z,41.55
2023-01-21T22:26:40.350Z,46.25
2023-01-21T22:28:43.457Z,46.97
2023-01-21T22:30:45.091Z,53.97
2023-01-21T22:32:46.609Z,53.83
2023-01-21T22:34:48.184Z,49.70
2023-01-21T22:36:49.707Z,59.35
2023-01-21T22:38:51.977Z,68.28
2023-01-21T22:40:54.572Z,58.10
2023-01-21T22:42:56.091Z,49.33
2023-01-21T22:44:57.664Z,40.10
2023-01-21T22:46:59.194Z,41.67
2023-01-21T22:49:00.810Z,43.70
2023-01-21T22:51:02.420Z,41.42
2023-01-21T22:53:03.974Z,39.53
2023-01-21T22:55:06.105Z,44.63
2023-01-21T22:57:07.657Z,51.83
2023-01-21T22:59:09.422Z,53.28
2023-01-21T23:01:31.023Z,58.63
2023-01-21T23:03:32.742Z,50.45
2023-01-21T23:05:35.718Z,40.50
2023-01-21T23:07:37.336Z,41.80
2023-01-21T23:09:38.822Z,46.15
2023-01-21T23:11:41.535Z,39.10
2023-01-21T23:13:43.232Z,41.35
2023-01-21T23:15:46.819Z,41.65
2023-01-21T23:17:48.633Z,38.30
2023-01-21T23:19:50.138Z,38.85
2023-01-21T23:21:51.670Z,40.20
2023-01-21T23:23:53.191Z,31.23
2023-01-21T23:25:54.704Z,30.63
2023-01-21T23:27:56.283Z,28.67
2023-01-21T23:29:57.863Z,31.00
2023-01-21T23:31:59.549Z,33.40
2023-01-21T23:34:03.288Z,29.67
2023-01-21T23:36:05.065Z,28.17
2023-01-21T23:38:06.592Z,28.25
2023-01-21T23:40:08.731Z,33.10
2023-01-21T23:42:10.227Z,35.30
2023-01-21T23:44:11.861Z,34.75
2023-01-21T23:46:16.621Z,31.83
2023-01-21T23:48:18.321Z,29.05
2023-01-21T23:50:20.111Z,32.30
2023-01-21T23:52:21.811Z,31.70
2023-01-21T23:54:23.524Z,33.53
2023-01-21T23:56:25.693Z,37.80
2023-01-21T23:58:27.218Z,38.53
